»·PEaware :: WAT169 KSLC-KBZN

WAT169 :: KSLC-KBZN

FLIGHT INFORMATION

Flight Status: Arrived
Operator:
Walker Air Transport
More flights by this operator :: More flights under this callsign
Pilot: Marty P. (27464)
Aircraft: BOEING 737-800
(B738)
More flights by this aircraft type
Origin: KSLC Salt Lake City Intl
United States
Destination: KBZN Gallatin
United States
More flights between these airports :: More routes between these airports
Route: RUGGD1 HOLTR BRIGR BZN
File this flight plan on PilotEdge
Remarks:
Altitude:
(Current/Filed)
27,000ft
Speed:
(Current/Filed)
480kts
Departed: 05-Oct-20 07:40 PM
Arrived: 05-Oct-20 08:33 PM
Distance/Time
Traveled:
301nm/0:53
Distance/Time
To Go:
Arrived

Flight Plot

Page will automatically refresh every two minutes.

Flight plan parsing failed; only flown route is shown


Map Options




Map Legend


Flown Route
Filed Route
Departure Airport
Arrival Airport
Navaid (VOR, NDB)
Fix

Horizontal Profiles

Position Reports

Time Latitude Longitude Heading Altitude Ground
Speed
05-Oct-20 19:14 40.788529 -111.980852 282 4226ft 0kts
05-Oct-20 19:15 40.788529 -111.980852 282 4226ft 0kts
05-Oct-20 19:16 40.788529 -111.980852 282 4226ft 0kts
05-Oct-20 19:17 40.788529 -111.980852 282 4226ft 0kts
05-Oct-20 19:18 40.788529 -111.980852 282 4226ft 0kts
05-Oct-20 19:19 40.788529 -111.980852 282 4226ft 0kts
05-Oct-20 19:20 40.788529 -111.980852 282 4226ft 0kts
05-Oct-20 19:21 40.788529 -111.980852 282 4226ft 0kts
05-Oct-20 19:22 40.788529 -111.980852 282 4226ft 0kts
05-Oct-20 19:23 40.788529 -111.980852 282 4226ft 0kts
05-Oct-20 19:24 40.788529 -111.980852 282 4226ft 0kts
05-Oct-20 19:25 40.788529 -111.980852 282 4226ft 0kts
05-Oct-20 19:26 40.788529 -111.980852 282 4226ft 0kts
05-Oct-20 19:27 40.788529 -111.980852 282 4226ft 0kts
05-Oct-20 19:28 40.788450 -111.980682 311 4226ft 1kts
05-Oct-20 19:29 40.788281 -111.979945 309 4226ft 2kts
05-Oct-20 19:30 40.787833 -111.979724 9 4227ft 1kts
05-Oct-20 19:31 40.787814 -111.979728 8 4227ft 0kts
05-Oct-20 19:32 40.787986 -111.979695 6 4226ft 4kts
05-Oct-20 19:33 40.789071 -111.979490 11 4226ft 5kts
05-Oct-20 19:34 40.790733 -111.977208 5 4225ft 11kts
05-Oct-20 19:35 40.796464 -111.977830 354 4226ft 24kts
05-Oct-20 19:36 40.802164 -111.978504 355 4232ft 18kts
05-Oct-20 19:37 40.806905 -111.978966 12 4229ft 10kts
05-Oct-20 19:38 40.807352 -111.977512 117 4229ft 13kts
05-Oct-20 19:39 40.790178 -111.974948 175 4227ft 168kts
05-Oct-20 19:40 40.755790 -112.007968 289 5984ft 227kts
05-Oct-20 19:41 40.794195 -112.083826 306 8759ft 260kts
05-Oct-20 19:42 40.845090 -112.149933 352 11896ft 285kts
05-Oct-20 19:43 40.930201 -112.106492 29 13011ft 380kts
05-Oct-20 19:44 41.022961 -112.035611 27 16195ft 393kts
05-Oct-20 19:45 41.091662 -111.927502 73 18871ft 421kts
05-Oct-20 19:46 41.171116 -111.828973 14 22007ft 392kts
05-Oct-20 19:47 41.277461 -111.791344 12 24196ft 402kts
05-Oct-20 19:48 41.386653 -111.753406 12 26165ft 412kts
05-Oct-20 19:49 41.499289 -111.714231 12 27397ft 435kts
05-Oct-20 19:50 41.622267 -111.671420 12 27393ft 478kts
05-Oct-20 19:51 41.754360 -111.625284 12 27393ft 502kts
05-Oct-20 19:52 41.890859 -111.577461 12 27392ft 510kts
05-Oct-20 19:53 42.027762 -111.529363 12 27428ft 510kts
05-Oct-20 19:54 42.164566 -111.481190 12 27457ft 510kts
05-Oct-20 19:55 42.302738 -111.443285 2 27459ft 507kts
05-Oct-20 19:56 42.443116 -111.436928 358 27457ft 506kts
05-Oct-20 19:57 42.583720 -111.436630 358 27458ft 505kts
05-Oct-20 19:58 42.723430 -111.437585 358 27474ft 502kts
05-Oct-20 19:59 42.862774 -111.438837 357 27476ft 501kts
05-Oct-20 20:00 43.002293 -111.440171 357 27475ft 501kts
05-Oct-20 20:01 43.141173 -111.441522 357 27466ft 500kts
05-Oct-20 20:02 43.279787 -111.442884 357 27456ft 499kts
05-Oct-20 20:03 43.418303 -111.444248 357 27457ft 498kts
05-Oct-20 20:04 43.556113 -111.445613 357 27456ft 496kts
05-Oct-20 20:05 43.693574 -111.446982 357 27456ft 496kts
05-Oct-20 20:06 43.831259 -111.448357 357 27419ft 494kts
05-Oct-20 20:07 43.968362 -111.449733 357 27411ft 494kts
05-Oct-20 20:08 44.105211 -111.451108 357 27412ft 492kts
05-Oct-20 20:09 44.242206 -111.452501 357 27411ft 493kts
05-Oct-20 20:10 44.378764 -111.453889 357 27428ft 493kts
05-Oct-20 20:11 44.510931 -111.455159 357 27480ft 437kts
05-Oct-20 20:12 44.633302 -111.456461 356 26297ft 437kts
05-Oct-20 20:13 44.752394 -111.457688 356 24369ft 429kts
05-Oct-20 20:15 44.869813 -111.458878 356 22360ft 415kts
05-Oct-20 20:16 44.983392 -111.460041 356 19913ft 401kts
05-Oct-20 20:17 45.089563 -111.461077 355 17301ft 354kts
05-Oct-20 20:18 45.181835 -111.462129 355 17222ft 330kts
05-Oct-20 20:19 45.271085 -111.463004 355 17218ft 297kts
05-Oct-20 20:20 45.348640 -111.463823 354 17221ft 262kts
05-Oct-20 20:21 45.423334 -111.464666 354 15291ft 266kts
05-Oct-20 20:22 45.493404 -111.478385 350 12746ft 256kts
05-Oct-20 20:23 45.564359 -111.479284 356 10245ft 257kts
05-Oct-20 20:24 45.635142 -111.484197 356 7993ft 248kts
05-Oct-20 20:25 45.699958 -111.490245 356 7211ft 227kts
05-Oct-20 20:26 45.761665 -111.474719 13 7210ft 226kts
05-Oct-20 20:27 45.821142 -111.447455 21 7214ft 218kts
05-Oct-20 20:28 45.867416 -111.407006 45 7213ft 195kts
05-Oct-20 20:29 45.903446 -111.349686 64 7193ft 194kts
05-Oct-20 20:29 45.882695 -111.297040 138 7061ft 202kts
05-Oct-20 20:30 45.843615 -111.243851 134 5974ft 185kts
05-Oct-20 20:31 45.810798 -111.198027 135 5087ft 153kts
05-Oct-20 20:33 45.779460 -111.154585 135 4455ft 38kts
05-Oct-20 20:34 45.774969 -111.149677 211 4465ft 0kts
05-Oct-20 20:35 45.774173 -111.150805 258 4467ft 6kts

Navigation Log

Ident Type
Flight plan parsing failed, navigation log unavailable